EDT,Max TemperatureF,Mean TemperatureF,Min TemperatureF,Max Dew PointF,MeanDew PointF,Min DewpointF,Max Humidity, Mean Humidity, Min Humidity, Max Sea Level PressureIn, Mean Sea Level PressureIn, Min Sea Level PressureIn, Max VisibilityMiles, Mean VisibilityMiles, Min VisibilityMiles, Max Wind SpeedMPH, Mean Wind SpeedMPH, Max Gust SpeedMPH,PrecipitationIn, CloudCover, Events, WindDirDegrees
2012-9-1,91,82,75,77,73,70,94,84,53,30.19,30.14,30.08,10,6,0,10,1,,0.01,3,Fog,112
2012-9-2,91,82,75,74,72,69,94,75,50,30.10,30.05,29.99,10,10,7,12,2,,0.00,1,,162
2012-9-3,91,82,73,71,70,68,85,69,50,30.07,30.02,29.98,10,10,9,12,5,,0.00,0,,168
2012-9-4,91,82,73,72,70,66,87,70,44,30.02,29.99,29.93,10,10,10,12,5,17,0.00,3,,186
2012-9-5,90,81,73,75,72,70,90,74,55,29.99,29.95,29.91,10,10,10,10,3,,0.00,1,,152
2012-9-6,91,82,75,74,72,69,85,73,52,30.02,29.97,29.94,10,10,10,10,4,,0.00,2,Thunderstorm,180
2012-9-7,91,82,75,75,73,70,91,78,52,29.99,29.94,29.90,10,9,3,15,3,20,0.53,2,Rain-Thunderstorm,194
2012-9-8,91,82,73,77,73,69,94,79,47,29.94,29.89,29.83,10,8,2,13,4,30,0.11,3,Rain-Thunderstorm,204
2012-9-9,89,84,78,76,73,69,90,78,53,29.95,29.86,29.80,10,8,2,12,6,17,0.12,5,Rain,262
2012-9-10,86,80,75,70,66,61,79,64,46,30.09,30.01,29.94,10,10,10,14,7,20,0.00,3,,45
2012-9-11,86,80,75,69,62,58,76,55,40,30.19,30.14,30.08,10,10,10,16,9,24,0.00,2,Rain,75
2012-9-12,86,78,73,72,69,64,88,74,49,30.22,30.17,30.13,10,9,2,18,8,26,0.23,6,Rain,58
2012-9-13,82,76,71,73,70,67,94,83,72,30.19,30.15,30.10,10,7,1,18,7,28,1.06,7,Rain,53
2012-9-14,84,78,73,74,71,70,91,80,63,30.14,30.10,30.07,10,9,1,15,6,22,0.38,5,Rain,78
2012-9-15,84,78,73,73,71,68,91,78,65,30.13,30.10,30.07,10,10,4,13,5,17,0.07,3,Rain,66
2012-9-16,87,78,71,73,71,69,93,77,59,30.10,30.06,30.02,10,10,10,13,3,,0.00,1,,116
2012-9-17,88,80,72,73,71,69,91,75,59,30.05,29.99,29.92,10,10,10,15,4,22,0.01,2,,149
2012-9-18,81,76,73,75,72,70,90,85,77,29.94,29.89,29.83,10,10,5,13,9,,0.18,3,Rain-Thunderstorm,210
2012-9-19,88,81,75,73,71,67,91,77,53,30.05,29.96,29.89,10,10,9,9,5,,0.00,4,,283
2012-9-20,82,76,71,73,71,64,93,85,73,30.07,30.04,30.01,10,6,0,18,4,28,3.52,5,Fog-Rain-Thunderstorm,68
2012-9-21,84,78,73,74,72,70,94,81,69,30.04,30.02,29.97,10,9,4,12,3,18,0.01,4,Rain,46
2012-9-22,86,78,73,73,71,68,91,80,61,30.06,30.02,29.99,10,10,9,13,2,,0.00,1,,73
2012-9-23,89,80,70,71,64,55,93,65,38,30.10,30.05,30.01,10,10,8,10,3,,0.00,0,,332
2012-9-24,84,74,63,65,57,48,84,58,28,30.12,30.09,30.06,10,10,10,10,3,,0.00,1,,45
2012-9-25,82,78,75,67,65,63,67,63,56,30.16,30.13,30.07,10,10,10,18,9,25,0.00,6,Rain,51
2012-9-26,88,80,72,73,71,65,94,78,61,30.16,30.13,30.09,10,10,10,14,5,18,0.04,3,,71
2012-9-27,86,80,73,74,71,67,91,76,61,30.16,30.12,30.08,10,10,7,15,4,23,0.00,1,,65
2012-9-28,87,79,71,74,71,69,94,77,58,30.10,30.05,30.00,10,10,6,13,5,,0.00,2,,43
2012-9-29,88,78,69,73,67,63,97,79,44,30.02,29.96,29.88,10,8,0,9,1,,0.00,1,Fog,80
2012-9-30,89,80,73,75,72,68,94,80,51,29.91,29.84,29.78,10,9,2,14,3,,0.11,2,Rain-Thunderstorm,151